<?xml version="1.0" encoding="UTF-8" standalone="no" ?>
<gpx xmlns="http://www.topografix.com/GPX/1/1" xmlns:xsi="http://www.w3.org/2001/XMLSchema-instance" xsi:schemaLocation="http://www.topografix.com/GPX/1/1 http://www.topografix.com/GPX/1/1/gpx.xsd" version="1.1" creator="VisuGPX - https://www.visugpx.com">
  <metadata>
    <name>Petite visite de La Rochelle</name>
    <desc><![CDATA[Circuit de découverte de La Rochelle, avec un guide, au départ de l'Office de tourisme, quai Georges Simenon.]]></desc>
  </metadata>
  <trk>
    <name><![CDATA[20190421222044-WHql2]]></name>
    <trkseg>
      <trkpt lat="46.15482" lon="-1.15013">
        <ele>2</ele>
        <time>2019-04-18T07:38:36Z</time>
      </trkpt>
      <trkpt lat="46.15483" lon="-1.15012">
        <ele>2</ele>
        <time>2019-04-18T07:38:48Z</time>
      </trkpt>
      <trkpt lat="46.15486" lon="-1.15014">
        <ele>2</ele>
        <time>2019-04-18T07:39:32Z</time>
      </trkpt>
      <trkpt lat="46.15483" lon="-1.15011">
        <ele>2</ele>
        <time>2019-04-18T07:40:28Z</time>
      </trkpt>
      <trkpt lat="46.15484" lon="-1.15025">
        <ele>2</ele>
        <time>2019-04-18T07:40:40Z</time>
      </trkpt>
      <trkpt lat="46.15484" lon="-1.15043">
        <ele>3</ele>
        <time>2019-04-18T07:40:53Z</time>
      </trkpt>
      <trkpt lat="46.15484" lon="-1.15048">
        <ele>3</ele>
        <time>2019-04-18T07:40:57Z</time>
      </trkpt>
      <trkpt lat="46.15483" lon="-1.15066">
        <ele>3</ele>
        <time>2019-04-18T07:41:11Z</time>
      </trkpt>
      <trkpt lat="46.15483" lon="-1.15068">
        <ele>3</ele>
        <time>2019-04-18T07:41:17Z</time>
      </trkpt>
      <trkpt lat="46.15483" lon="-1.15091">
        <ele>3</ele>
        <time>2019-04-18T07:41:31Z</time>
      </trkpt>
      <trkpt lat="46.15483" lon="-1.15098">
        <ele>3</ele>
        <time>2019-04-18T07:41:35Z</time>
      </trkpt>
      <trkpt lat="46.15483" lon="-1.15107">
        <ele>2</ele>
        <time>2019-04-18T07:41:42Z</time>
      </trkpt>
      <trkpt lat="46.15483" lon="-1.15128">
        <ele>2</ele>
        <time>2019-04-18T07:41:57Z</time>
      </trkpt>
      <trkpt lat="46.15482" lon="-1.15134">
        <ele>2</ele>
        <time>2019-04-18T07:42:02Z</time>
      </trkpt>
      <trkpt lat="46.15482" lon="-1.15145">
        <ele>2</ele>
        <time>2019-04-18T07:42:11Z</time>
      </trkpt>
      <trkpt lat="46.15482" lon="-1.15155">
        <ele>2</ele>
        <time>2019-04-18T07:42:18Z</time>
      </trkpt>
      <trkpt lat="46.15482" lon="-1.15162">
        <ele>2</ele>
        <time>2019-04-18T07:42:23Z</time>
      </trkpt>
      <trkpt lat="46.15482" lon="-1.15173">
        <ele>2</ele>
        <time>2019-04-18T07:42:37Z</time>
      </trkpt>
      <trkpt lat="46.15481" lon="-1.15175">
        <ele>2</ele>
        <time>2019-04-18T07:42:50Z</time>
      </trkpt>
      <trkpt lat="46.15482" lon="-1.15183">
        <ele>2</ele>
        <time>2019-04-18T07:43:09Z</time>
      </trkpt>
      <trkpt lat="46.15482" lon="-1.15183">
        <ele>2</ele>
        <time>2019-04-18T07:43:47Z</time>
      </trkpt>
      <trkpt lat="46.15481" lon="-1.15183">
        <ele>2</ele>
        <time>2019-04-18T07:44:13Z</time>
      </trkpt>
      <trkpt lat="46.1548" lon="-1.15181">
        <ele>2</ele>
        <time>2019-04-18T07:44:36Z</time>
      </trkpt>
      <trkpt lat="46.1548" lon="-1.15181">
        <ele>2</ele>
        <time>2019-04-18T07:44:57Z</time>
      </trkpt>
      <trkpt lat="46.1548" lon="-1.15181">
        <ele>2</ele>
        <time>2019-04-18T07:45:48Z</time>
      </trkpt>
      <trkpt lat="46.1548" lon="-1.15181">
        <ele>2</ele>
        <time>2019-04-18T07:46:27Z</time>
      </trkpt>
      <trkpt lat="46.15479" lon="-1.15194">
        <ele>2</ele>
        <time>2019-04-18T07:47:07Z</time>
      </trkpt>
      <trkpt lat="46.15477" lon="-1.15206">
        <ele>2</ele>
        <time>2019-04-18T07:47:19Z</time>
      </trkpt>
      <trkpt lat="46.15477" lon="-1.1522">
        <ele>2</ele>
        <time>2019-04-18T07:47:30Z</time>
      </trkpt>
      <trkpt lat="46.15479" lon="-1.15233">
        <ele>2</ele>
        <time>2019-04-18T07:47:40Z</time>
      </trkpt>
      <trkpt lat="46.1548" lon="-1.15242">
        <ele>2</ele>
        <time>2019-04-18T07:47:55Z</time>
      </trkpt>
      <trkpt lat="46.1548" lon="-1.15243">
        <ele>2</ele>
        <time>2019-04-18T07:48:25Z</time>
      </trkpt>
      <trkpt lat="46.1548" lon="-1.15252">
        <ele>2</ele>
        <time>2019-04-18T07:48:35Z</time>
      </trkpt>
      <trkpt lat="46.15483" lon="-1.15264">
        <ele>3</ele>
        <time>2019-04-18T07:48:49Z</time>
      </trkpt>
      <trkpt lat="46.15483" lon="-1.15278">
        <ele>3</ele>
        <time>2019-04-18T07:48:59Z</time>
      </trkpt>
      <trkpt lat="46.15482" lon="-1.153">
        <ele>4</ele>
        <time>2019-04-18T07:49:15Z</time>
      </trkpt>
      <trkpt lat="46.15482" lon="-1.15317">
        <ele>4</ele>
        <time>2019-04-18T07:49:28Z</time>
      </trkpt>
      <trkpt lat="46.15485" lon="-1.15331">
        <ele>4</ele>
        <time>2019-04-18T07:49:40Z</time>
      </trkpt>
      <trkpt lat="46.15485" lon="-1.15331">
        <ele>4</ele>
        <time>2019-04-18T07:49:46Z</time>
      </trkpt>
      <trkpt lat="46.1548" lon="-1.15338">
        <ele>6</ele>
        <time>2019-04-18T07:49:58Z</time>
      </trkpt>
      <trkpt lat="46.15485" lon="-1.1534">
        <ele>6</ele>
        <time>2019-04-18T07:50:28Z</time>
      </trkpt>
      <trkpt lat="46.15485" lon="-1.1534">
        <ele>6</ele>
        <time>2019-04-18T07:50:29Z</time>
      </trkpt>
      <trkpt lat="46.15482" lon="-1.15349">
        <ele>6</ele>
        <time>2019-04-18T07:50:42Z</time>
      </trkpt>
      <trkpt lat="46.15482" lon="-1.15349">
        <ele>6</ele>
        <time>2019-04-18T07:50:57Z</time>
      </trkpt>
      <trkpt lat="46.15483" lon="-1.15349">
        <ele>6</ele>
        <time>2019-04-18T07:51:23Z</time>
      </trkpt>
      <trkpt lat="46.15482" lon="-1.1535">
        <ele>6</ele>
        <time>2019-04-18T07:51:36Z</time>
      </trkpt>
      <trkpt lat="46.15483" lon="-1.15351">
        <ele>6</ele>
        <time>2019-04-18T07:52:48Z</time>
      </trkpt>
      <trkpt lat="46.15483" lon="-1.15351">
        <ele>6</ele>
        <time>2019-04-18T07:53:11Z</time>
      </trkpt>
      <trkpt lat="46.15483" lon="-1.15352">
        <ele>6</ele>
        <time>2019-04-18T07:53:43Z</time>
      </trkpt>
      <trkpt lat="46.15483" lon="-1.15352">
        <ele>6</ele>
        <time>2019-04-18T07:54:02Z</time>
      </trkpt>
      <trkpt lat="46.15484" lon="-1.15353">
        <ele>6</ele>
        <time>2019-04-18T07:54:41Z</time>
      </trkpt>
      <trkpt lat="46.15484" lon="-1.15353">
        <ele>6</ele>
        <time>2019-04-18T07:54:53Z</time>
      </trkpt>
      <trkpt lat="46.15483" lon="-1.15354">
        <ele>6</ele>
        <time>2019-04-18T07:55:18Z</time>
      </trkpt>
      <trkpt lat="46.15483" lon="-1.15355">
        <ele>6</ele>
        <time>2019-04-18T07:56:52Z</time>
      </trkpt>
      <trkpt lat="46.15483" lon="-1.15356">
        <ele>6</ele>
        <time>2019-04-18T07:59:09Z</time>
      </trkpt>
      <trkpt lat="46.15483" lon="-1.15356">
        <ele>6</ele>
        <time>2019-04-18T08:01:19Z</time>
      </trkpt>
      <trkpt lat="46.15486" lon="-1.15355">
        <ele>6</ele>
        <time>2019-04-18T08:01:31Z</time>
      </trkpt>
      <trkpt lat="46.15495" lon="-1.15347">
        <ele>6</ele>
        <time>2019-04-18T08:01:45Z</time>
      </trkpt>
      <trkpt lat="46.155" lon="-1.15342">
        <ele>6</ele>
        <time>2019-04-18T08:01:56Z</time>
      </trkpt>
      <trkpt lat="46.155" lon="-1.15342">
        <ele>6</ele>
        <time>2019-04-18T08:02:13Z</time>
      </trkpt>
      <trkpt lat="46.155" lon="-1.15341">
        <ele>6</ele>
        <time>2019-04-18T08:02:40Z</time>
      </trkpt>
      <trkpt lat="46.15501" lon="-1.15342">
        <ele>2</ele>
        <time>2019-04-18T08:03:53Z</time>
      </trkpt>
      <trkpt lat="46.15501" lon="-1.15342">
        <ele>2</ele>
        <time>2019-04-18T08:04:53Z</time>
      </trkpt>
      <trkpt lat="46.15509" lon="-1.15333">
        <ele>1</ele>
        <time>2019-04-18T08:05:08Z</time>
      </trkpt>
      <trkpt lat="46.15522" lon="-1.15323">
        <ele>1</ele>
        <time>2019-04-18T08:05:24Z</time>
      </trkpt>
      <trkpt lat="46.15535" lon="-1.15317">
        <ele>1</ele>
        <time>2019-04-18T08:05:38Z</time>
      </trkpt>
      <trkpt lat="46.15536" lon="-1.15317">
        <ele>1</ele>
        <time>2019-04-18T08:05:39Z</time>
      </trkpt>
      <trkpt lat="46.15549" lon="-1.15313">
        <ele>1</ele>
        <time>2019-04-18T08:05:54Z</time>
      </trkpt>
      <trkpt lat="46.15552" lon="-1.15311">
        <ele>1</ele>
        <time>2019-04-18T08:06:08Z</time>
      </trkpt>
      <trkpt lat="46.15552" lon="-1.15311">
        <ele>1</ele>
        <time>2019-04-18T08:06:16Z</time>
      </trkpt>
      <trkpt lat="46.15554" lon="-1.15304">
        <ele>1</ele>
        <time>2019-04-18T08:06:20Z</time>
      </trkpt>
      <trkpt lat="46.15554" lon="-1.15302">
        <ele>1</ele>
        <time>2019-04-18T08:06:22Z</time>
      </trkpt>
      <trkpt lat="46.15556" lon="-1.15287">
        <ele>1</ele>
        <time>2019-04-18T08:06:36Z</time>
      </trkpt>
      <trkpt lat="46.15561" lon="-1.15284">
        <ele>1</ele>
        <time>2019-04-18T08:06:59Z</time>
      </trkpt>
      <trkpt lat="46.15569" lon="-1.15283">
        <ele>1</ele>
        <time>2019-04-18T08:07:13Z</time>
      </trkpt>
      <trkpt lat="46.15571" lon="-1.15283">
        <ele>1</ele>
        <time>2019-04-18T08:07:27Z</time>
      </trkpt>
      <trkpt lat="46.15571" lon="-1.1528">
        <ele>1</ele>
        <time>2019-04-18T08:07:45Z</time>
      </trkpt>
      <trkpt lat="46.15573" lon="-1.15281">
        <ele>1</ele>
        <time>2019-04-18T08:08:22Z</time>
      </trkpt>
      <trkpt lat="46.15573" lon="-1.15281">
        <ele>1</ele>
        <time>2019-04-18T08:08:34Z</time>
      </trkpt>
      <trkpt lat="46.15573" lon="-1.15281">
        <ele>1</ele>
        <time>2019-04-18T08:08:46Z</time>
      </trkpt>
      <trkpt lat="46.1558" lon="-1.15282">
        <ele>1</ele>
        <time>2019-04-18T08:08:58Z</time>
      </trkpt>
      <trkpt lat="46.15585" lon="-1.15281">
        <ele>1</ele>
        <time>2019-04-18T08:09:10Z</time>
      </trkpt>
      <trkpt lat="46.15585" lon="-1.15281">
        <ele>1</ele>
        <time>2019-04-18T08:09:29Z</time>
      </trkpt>
      <trkpt lat="46.15585" lon="-1.15281">
        <ele>1</ele>
        <time>2019-04-18T08:10:37Z</time>
      </trkpt>
      <trkpt lat="46.15586" lon="-1.1528">
        <ele>1</ele>
        <time>2019-04-18T08:12:44Z</time>
      </trkpt>
      <trkpt lat="46.15586" lon="-1.15276">
        <ele>1</ele>
        <time>2019-04-18T08:12:48Z</time>
      </trkpt>
      <trkpt lat="46.15595" lon="-1.15259">
        <ele>1</ele>
        <time>2019-04-18T08:13:02Z</time>
      </trkpt>
      <trkpt lat="46.15601" lon="-1.15248">
        <ele>1</ele>
        <time>2019-04-18T08:13:15Z</time>
      </trkpt>
      <trkpt lat="46.15603" lon="-1.15241">
        <ele>1</ele>
        <time>2019-04-18T08:13:28Z</time>
      </trkpt>
      <trkpt lat="46.15604" lon="-1.15239">
        <ele>1</ele>
        <time>2019-04-18T08:13:45Z</time>
      </trkpt>
      <trkpt lat="46.15605" lon="-1.15237">
        <ele>1</ele>
        <time>2019-04-18T08:14:05Z</time>
      </trkpt>
      <trkpt lat="46.1561" lon="-1.15231">
        <ele>1</ele>
        <time>2019-04-18T08:14:19Z</time>
      </trkpt>
      <trkpt lat="46.15615" lon="-1.1522">
        <ele>1</ele>
        <time>2019-04-18T08:14:31Z</time>
      </trkpt>
      <trkpt lat="46.15617" lon="-1.15216">
        <ele>1</ele>
        <time>2019-04-18T08:14:44Z</time>
      </trkpt>
      <trkpt lat="46.15617" lon="-1.15216">
        <ele>1</ele>
        <time>2019-04-18T08:14:55Z</time>
      </trkpt>
      <trkpt lat="46.15622" lon="-1.15202">
        <ele>1</ele>
        <time>2019-04-18T08:15:08Z</time>
      </trkpt>
      <trkpt lat="46.15625" lon="-1.1519">
        <ele>1</ele>
        <time>2019-04-18T08:15:19Z</time>
      </trkpt>
      <trkpt lat="46.15633" lon="-1.15183">
        <ele>1</ele>
        <time>2019-04-18T08:15:32Z</time>
      </trkpt>
      <trkpt lat="46.15643" lon="-1.15183">
        <ele>1</ele>
        <time>2019-04-18T08:15:43Z</time>
      </trkpt>
      <trkpt lat="46.15649" lon="-1.15181">
        <ele>1</ele>
        <time>2019-04-18T08:15:56Z</time>
      </trkpt>
      <trkpt lat="46.15649" lon="-1.15173">
        <ele>1</ele>
        <time>2019-04-18T08:16:09Z</time>
      </trkpt>
      <trkpt lat="46.15649" lon="-1.15173">
        <ele>1</ele>
        <time>2019-04-18T08:16:28Z</time>
      </trkpt>
      <trkpt lat="46.15649" lon="-1.15173">
        <ele>1</ele>
        <time>2019-04-18T08:16:56Z</time>
      </trkpt>
      <trkpt lat="46.15649" lon="-1.15173">
        <ele>1</ele>
        <time>2019-04-18T08:17:08Z</time>
      </trkpt>
      <trkpt lat="46.15649" lon="-1.15172">
        <ele>1</ele>
        <time>2019-04-18T08:17:46Z</time>
      </trkpt>
      <trkpt lat="46.15649" lon="-1.15172">
        <ele>1</ele>
        <time>2019-04-18T08:19:41Z</time>
      </trkpt>
      <trkpt lat="46.15649" lon="-1.15173">
        <ele>1</ele>
        <time>2019-04-18T08:21:24Z</time>
      </trkpt>
      <trkpt lat="46.15649" lon="-1.15173">
        <ele>1</ele>
        <time>2019-04-18T08:21:36Z</time>
      </trkpt>
      <trkpt lat="46.15656" lon="-1.15173">
        <ele>1</ele>
        <time>2019-04-18T08:22:18Z</time>
      </trkpt>
      <trkpt lat="46.15665" lon="-1.15173">
        <ele>1</ele>
        <time>2019-04-18T08:22:29Z</time>
      </trkpt>
      <trkpt lat="46.15671" lon="-1.15172">
        <ele>1</ele>
        <time>2019-04-18T08:22:36Z</time>
      </trkpt>
      <trkpt lat="46.15684" lon="-1.15164">
        <ele>1</ele>
        <time>2019-04-18T08:22:51Z</time>
      </trkpt>
      <trkpt lat="46.15695" lon="-1.15157">
        <ele>1</ele>
        <time>2019-04-18T08:23:05Z</time>
      </trkpt>
      <trkpt lat="46.15698" lon="-1.15159">
        <ele>1</ele>
        <time>2019-04-18T08:23:17Z</time>
      </trkpt>
      <trkpt lat="46.15698" lon="-1.15159">
        <ele>1</ele>
        <time>2019-04-18T08:23:39Z</time>
      </trkpt>
      <trkpt lat="46.15698" lon="-1.15159">
        <ele>1</ele>
        <time>2019-04-18T08:23:57Z</time>
      </trkpt>
      <trkpt lat="46.15698" lon="-1.15159">
        <ele>1</ele>
        <time>2019-04-18T08:24:24Z</time>
      </trkpt>
      <trkpt lat="46.15699" lon="-1.15159">
        <ele>1</ele>
        <time>2019-04-18T08:24:52Z</time>
      </trkpt>
      <trkpt lat="46.15699" lon="-1.15159">
        <ele>1</ele>
        <time>2019-04-18T08:25:13Z</time>
      </trkpt>
      <trkpt lat="46.15699" lon="-1.15159">
        <ele>1</ele>
        <time>2019-04-18T08:25:28Z</time>
      </trkpt>
      <trkpt lat="46.15699" lon="-1.15158">
        <ele>1</ele>
        <time>2019-04-18T08:26:15Z</time>
      </trkpt>
      <trkpt lat="46.15699" lon="-1.15159">
        <ele>1</ele>
        <time>2019-04-18T08:27:20Z</time>
      </trkpt>
      <trkpt lat="46.15699" lon="-1.15159">
        <ele>1</ele>
        <time>2019-04-18T08:27:44Z</time>
      </trkpt>
      <trkpt lat="46.157" lon="-1.15159">
        <ele>1</ele>
        <time>2019-04-18T08:28:01Z</time>
      </trkpt>
      <trkpt lat="46.157" lon="-1.15159">
        <ele>1</ele>
        <time>2019-04-18T08:28:12Z</time>
      </trkpt>
      <trkpt lat="46.15712" lon="-1.15143">
        <ele>2</ele>
        <time>2019-04-18T08:28:27Z</time>
      </trkpt>
      <trkpt lat="46.15724" lon="-1.15134">
        <ele>2</ele>
        <time>2019-04-18T08:28:40Z</time>
      </trkpt>
      <trkpt lat="46.15728" lon="-1.1513">
        <ele>2</ele>
        <time>2019-04-18T08:28:45Z</time>
      </trkpt>
      <trkpt lat="46.1574" lon="-1.15121">
        <ele>2</ele>
        <time>2019-04-18T08:29:00Z</time>
      </trkpt>
      <trkpt lat="46.15741" lon="-1.1512">
        <ele>2</ele>
        <time>2019-04-18T08:29:01Z</time>
      </trkpt>
      <trkpt lat="46.15748" lon="-1.15111">
        <ele>2</ele>
        <time>2019-04-18T08:29:11Z</time>
      </trkpt>
      <trkpt lat="46.15753" lon="-1.15104">
        <ele>3</ele>
        <time>2019-04-18T08:29:19Z</time>
      </trkpt>
      <trkpt lat="46.15758" lon="-1.15098">
        <ele>3</ele>
        <time>2019-04-18T08:29:26Z</time>
      </trkpt>
      <trkpt lat="46.15768" lon="-1.15085">
        <ele>3</ele>
        <time>2019-04-18T08:29:42Z</time>
      </trkpt>
      <trkpt lat="46.15779" lon="-1.15077">
        <ele>5</ele>
        <time>2019-04-18T08:29:57Z</time>
      </trkpt>
      <trkpt lat="46.15784" lon="-1.15076">
        <ele>5</ele>
        <time>2019-04-18T08:30:09Z</time>
      </trkpt>
      <trkpt lat="46.15789" lon="-1.15077">
        <ele>5</ele>
        <time>2019-04-18T08:30:22Z</time>
      </trkpt>
      <trkpt lat="46.15795" lon="-1.15078">
        <ele>5</ele>
        <time>2019-04-18T08:30:35Z</time>
      </trkpt>
      <trkpt lat="46.158" lon="-1.1508">
        <ele>5</ele>
        <time>2019-04-18T08:30:41Z</time>
      </trkpt>
      <trkpt lat="46.15807" lon="-1.1508">
        <ele>5</ele>
        <time>2019-04-18T08:30:47Z</time>
      </trkpt>
      <trkpt lat="46.15812" lon="-1.1508">
        <ele>5</ele>
        <time>2019-04-18T08:30:51Z</time>
      </trkpt>
      <trkpt lat="46.15815" lon="-1.1508">
        <ele>5</ele>
        <time>2019-04-18T08:31:05Z</time>
      </trkpt>
      <trkpt lat="46.15815" lon="-1.1508">
        <ele>5</ele>
        <time>2019-04-18T08:31:28Z</time>
      </trkpt>
      <trkpt lat="46.1582" lon="-1.1508">
        <ele>5</ele>
        <time>2019-04-18T08:31:48Z</time>
      </trkpt>
      <trkpt lat="46.15822" lon="-1.15081">
        <ele>5</ele>
        <time>2019-04-18T08:31:50Z</time>
      </trkpt>
      <trkpt lat="46.15831" lon="-1.15079">
        <ele>5</ele>
        <time>2019-04-18T08:32:00Z</time>
      </trkpt>
      <trkpt lat="46.15831" lon="-1.1508">
        <ele>5</ele>
        <time>2019-04-18T08:32:11Z</time>
      </trkpt>
      <trkpt lat="46.15838" lon="-1.15076">
        <ele>6</ele>
        <time>2019-04-18T08:32:18Z</time>
      </trkpt>
      <trkpt lat="46.15848" lon="-1.15071">
        <ele>7</ele>
        <time>2019-04-18T08:32:30Z</time>
      </trkpt>
      <trkpt lat="46.15851" lon="-1.15069">
        <ele>7</ele>
        <time>2019-04-18T08:32:41Z</time>
      </trkpt>
      <trkpt lat="46.15853" lon="-1.15067">
        <ele>7</ele>
        <time>2019-04-18T08:32:53Z</time>
      </trkpt>
      <trkpt lat="46.15854" lon="-1.15064">
        <ele>7</ele>
        <time>2019-04-18T08:33:09Z</time>
      </trkpt>
      <trkpt lat="46.15854" lon="-1.15064">
        <ele>7</ele>
        <time>2019-04-18T08:33:42Z</time>
      </trkpt>
      <trkpt lat="46.15854" lon="-1.15064">
        <ele>7</ele>
        <time>2019-04-18T08:34:15Z</time>
      </trkpt>
      <trkpt lat="46.15854" lon="-1.15063">
        <ele>7</ele>
        <time>2019-04-18T08:34:55Z</time>
      </trkpt>
      <trkpt lat="46.15855" lon="-1.15063">
        <ele>7</ele>
        <time>2019-04-18T08:35:52Z</time>
      </trkpt>
      <trkpt lat="46.15863" lon="-1.1505">
        <ele>8</ele>
        <time>2019-04-18T08:36:13Z</time>
      </trkpt>
      <trkpt lat="46.15861" lon="-1.15049">
        <ele>8</ele>
        <time>2019-04-18T08:36:27Z</time>
      </trkpt>
      <trkpt lat="46.15855" lon="-1.1504">
        <ele>8</ele>
        <time>2019-04-18T08:36:42Z</time>
      </trkpt>
      <trkpt lat="46.15856" lon="-1.1504">
        <ele>8</ele>
        <time>2019-04-18T08:36:51Z</time>
      </trkpt>
      <trkpt lat="46.15857" lon="-1.15041">
        <ele>8</ele>
        <time>2019-04-18T08:36:53Z</time>
      </trkpt>
      <trkpt lat="46.15859" lon="-1.15045">
        <ele>8</ele>
        <time>2019-04-18T08:36:56Z</time>
      </trkpt>
      <trkpt lat="46.15868" lon="-1.15051">
        <ele>8</ele>
        <time>2019-04-18T08:37:07Z</time>
      </trkpt>
      <trkpt lat="46.15869" lon="-1.15053">
        <ele>8</ele>
        <time>2019-04-18T08:37:19Z</time>
      </trkpt>
      <trkpt lat="46.15869" lon="-1.15053">
        <ele>8</ele>
        <time>2019-04-18T08:37:42Z</time>
      </trkpt>
      <trkpt lat="46.15869" lon="-1.15054">
        <ele>8</ele>
        <time>2019-04-18T08:38:02Z</time>
      </trkpt>
      <trkpt lat="46.15869" lon="-1.15053">
        <ele>8</ele>
        <time>2019-04-18T08:38:56Z</time>
      </trkpt>
      <trkpt lat="46.15871" lon="-1.15055">
        <ele>8</ele>
        <time>2019-04-18T08:39:45Z</time>
      </trkpt>
      <trkpt lat="46.15874" lon="-1.15052">
        <ele>8</ele>
        <time>2019-04-18T08:40:00Z</time>
      </trkpt>
      <trkpt lat="46.15875" lon="-1.15052">
        <ele>8</ele>
        <time>2019-04-18T08:40:13Z</time>
      </trkpt>
      <trkpt lat="46.15875" lon="-1.15052">
        <ele>8</ele>
        <time>2019-04-18T08:40:26Z</time>
      </trkpt>
      <trkpt lat="46.15878" lon="-1.1505">
        <ele>8</ele>
        <time>2019-04-18T08:40:44Z</time>
      </trkpt>
      <trkpt lat="46.15878" lon="-1.1505">
        <ele>8</ele>
        <time>2019-04-18T08:41:09Z</time>
      </trkpt>
      <trkpt lat="46.15881" lon="-1.15051">
        <ele>8</ele>
        <time>2019-04-18T08:41:22Z</time>
      </trkpt>
      <trkpt lat="46.15892" lon="-1.15052">
        <ele>9</ele>
        <time>2019-04-18T08:41:31Z</time>
      </trkpt>
      <trkpt lat="46.15912" lon="-1.15047">
        <ele>9</ele>
        <time>2019-04-18T08:41:40Z</time>
      </trkpt>
      <trkpt lat="46.1592" lon="-1.15044">
        <ele>11</ele>
        <time>2019-04-18T08:41:50Z</time>
      </trkpt>
      <trkpt lat="46.15901" lon="-1.15057">
        <ele>9</ele>
        <time>2019-04-18T08:42:08Z</time>
      </trkpt>
      <trkpt lat="46.15901" lon="-1.15056">
        <ele>9</ele>
        <time>2019-04-18T08:42:27Z</time>
      </trkpt>
      <trkpt lat="46.15902" lon="-1.15054">
        <ele>9</ele>
        <time>2019-04-18T08:42:48Z</time>
      </trkpt>
      <trkpt lat="46.15908" lon="-1.15062">
        <ele>9</ele>
        <time>2019-04-18T08:43:04Z</time>
      </trkpt>
      <trkpt lat="46.15917" lon="-1.15074">
        <ele>10</ele>
        <time>2019-04-18T08:43:19Z</time>
      </trkpt>
      <trkpt lat="46.15915" lon="-1.15078">
        <ele>10</ele>
        <time>2019-04-18T08:43:32Z</time>
      </trkpt>
      <trkpt lat="46.15913" lon="-1.1508">
        <ele>10</ele>
        <time>2019-04-18T08:43:53Z</time>
      </trkpt>
      <trkpt lat="46.15912" lon="-1.15081">
        <ele>10</ele>
        <time>2019-04-18T08:44:38Z</time>
      </trkpt>
      <trkpt lat="46.15911" lon="-1.15082">
        <ele>10</ele>
        <time>2019-04-18T08:45:42Z</time>
      </trkpt>
      <trkpt lat="46.15912" lon="-1.15083">
        <ele>10</ele>
        <time>2019-04-18T08:46:52Z</time>
      </trkpt>
      <trkpt lat="46.15911" lon="-1.15084">
        <ele>0.14</ele>
        <time>2019-04-18T08:49:20Z</time>
      </trkpt>
      <trkpt lat="46.15919" lon="-1.1508">
        <ele>11</ele>
        <time>2019-04-18T08:49:39Z</time>
      </trkpt>
      <trkpt lat="46.15931" lon="-1.15069">
        <ele>11</ele>
        <time>2019-04-18T08:49:59Z</time>
      </trkpt>
      <trkpt lat="46.15938" lon="-1.15062">
        <ele>11</ele>
        <time>2019-04-18T08:50:14Z</time>
      </trkpt>
      <trkpt lat="46.15945" lon="-1.15054">
        <ele>11</ele>
        <time>2019-04-18T08:50:29Z</time>
      </trkpt>
      <trkpt lat="46.15949" lon="-1.1505">
        <ele>11</ele>
        <time>2019-04-18T08:50:45Z</time>
      </trkpt>
      <trkpt lat="46.15958" lon="-1.15054">
        <ele>11</ele>
        <time>2019-04-18T08:50:57Z</time>
      </trkpt>
      <trkpt lat="46.1596" lon="-1.15058">
        <ele>11</ele>
        <time>2019-04-18T08:51:03Z</time>
      </trkpt>
      <trkpt lat="46.15962" lon="-1.15059">
        <ele>11</ele>
        <time>2019-04-18T08:51:06Z</time>
      </trkpt>
      <trkpt lat="46.15969" lon="-1.15059">
        <ele>12</ele>
        <time>2019-04-18T08:51:13Z</time>
      </trkpt>
      <trkpt lat="46.15975" lon="-1.15056">
        <ele>12</ele>
        <time>2019-04-18T08:51:25Z</time>
      </trkpt>
      <trkpt lat="46.15972" lon="-1.15059">
        <ele>12</ele>
        <time>2019-04-18T08:51:43Z</time>
      </trkpt>
      <trkpt lat="46.15971" lon="-1.1506">
        <ele>12</ele>
        <time>2019-04-18T08:52:03Z</time>
      </trkpt>
      <trkpt lat="46.15971" lon="-1.1506">
        <ele>12</ele>
        <time>2019-04-18T08:52:27Z</time>
      </trkpt>
      <trkpt lat="46.15975" lon="-1.15057">
        <ele>12</ele>
        <time>2019-04-18T08:52:51Z</time>
      </trkpt>
      <trkpt lat="46.1598" lon="-1.15054">
        <ele>12</ele>
        <time>2019-04-18T08:53:24Z</time>
      </trkpt>
      <trkpt lat="46.15979" lon="-1.15055">
        <ele>0.14</ele>
        <time>2019-04-18T08:53:44Z</time>
      </trkpt>
      <trkpt lat="46.15998" lon="-1.15048">
        <ele>0.14</ele>
        <time>2019-04-18T08:54:00Z</time>
      </trkpt>
      <trkpt lat="46.16001" lon="-1.15059">
        <ele>0.14</ele>
        <time>2019-04-18T08:54:20Z</time>
      </trkpt>
      <trkpt lat="46.15996" lon="-1.15057">
        <ele>0.14</ele>
        <time>2019-04-18T08:54:47Z</time>
      </trkpt>
      <trkpt lat="46.1599" lon="-1.15058">
        <ele>0.14</ele>
        <time>2019-04-18T08:55:14Z</time>
      </trkpt>
      <trkpt lat="46.15985" lon="-1.15059">
        <ele>0.14</ele>
        <time>2019-04-18T08:55:45Z</time>
      </trkpt>
      <trkpt lat="46.15983" lon="-1.15059">
        <ele>0.14</ele>
        <time>2019-04-18T08:56:09Z</time>
      </trkpt>
      <trkpt lat="46.15983" lon="-1.15056">
        <ele>0.62</ele>
        <time>2019-04-18T08:56:21Z</time>
      </trkpt>
      <trkpt lat="46.15987" lon="-1.15054">
        <ele>0.14</ele>
        <time>2019-04-18T08:56:33Z</time>
      </trkpt>
      <trkpt lat="46.15987" lon="-1.15055">
        <ele>1.1</ele>
        <time>2019-04-18T08:56:50Z</time>
      </trkpt>
      <trkpt lat="46.15987" lon="-1.15054">
        <ele>1.1</ele>
        <time>2019-04-18T08:57:19Z</time>
      </trkpt>
      <trkpt lat="46.15985" lon="-1.15056">
        <ele>1.1</ele>
        <time>2019-04-18T08:57:44Z</time>
      </trkpt>
      <trkpt lat="46.15986" lon="-1.15055">
        <ele>1.58</ele>
        <time>2019-04-18T08:58:33Z</time>
      </trkpt>
      <trkpt lat="46.15986" lon="-1.15053">
        <ele>1.1</ele>
        <time>2019-04-18T08:58:53Z</time>
      </trkpt>
      <trkpt lat="46.16003" lon="-1.15058">
        <ele>1.58</ele>
        <time>2019-04-18T08:59:15Z</time>
      </trkpt>
      <trkpt lat="46.16007" lon="-1.15059">
        <ele>1.58</ele>
        <time>2019-04-18T08:59:17Z</time>
      </trkpt>
      <trkpt lat="46.16024" lon="-1.15074">
        <ele>2.54</ele>
        <time>2019-04-18T08:59:34Z</time>
      </trkpt>
      <trkpt lat="46.16023" lon="-1.15084">
        <ele>2.54</ele>
        <time>2019-04-18T08:59:46Z</time>
      </trkpt>
      <trkpt lat="46.16025" lon="-1.15097">
        <ele>3.02</ele>
        <time>2019-04-18T09:00:00Z</time>
      </trkpt>
      <trkpt lat="46.16028" lon="-1.15116">
        <ele>3.02</ele>
        <time>2019-04-18T09:00:15Z</time>
      </trkpt>
      <trkpt lat="46.16027" lon="-1.1512">
        <ele>3.02</ele>
        <time>2019-04-18T09:00:32Z</time>
      </trkpt>
      <trkpt lat="46.16017" lon="-1.15122">
        <ele>3.5</ele>
        <time>2019-04-18T09:00:53Z</time>
      </trkpt>
      <trkpt lat="46.16007" lon="-1.15128">
        <ele>3.5</ele>
        <time>2019-04-18T09:01:11Z</time>
      </trkpt>
      <trkpt lat="46.16001" lon="-1.15128">
        <ele>3.5</ele>
        <time>2019-04-18T09:01:30Z</time>
      </trkpt>
      <trkpt lat="46.16002" lon="-1.15133">
        <ele>3.98</ele>
        <time>2019-04-18T09:01:52Z</time>
      </trkpt>
      <trkpt lat="46.15997" lon="-1.1514">
        <ele>3.98</ele>
        <time>2019-04-18T09:02:20Z</time>
      </trkpt>
      <trkpt lat="46.15988" lon="-1.15148">
        <ele>3.5</ele>
        <time>2019-04-18T09:02:33Z</time>
      </trkpt>
      <trkpt lat="46.15987" lon="-1.15151">
        <ele>3.5</ele>
        <time>2019-04-18T09:02:50Z</time>
      </trkpt>
      <trkpt lat="46.15987" lon="-1.15151">
        <ele>3.98</ele>
        <time>2019-04-18T09:03:24Z</time>
      </trkpt>
      <trkpt lat="46.15987" lon="-1.15151">
        <ele>3.98</ele>
        <time>2019-04-18T09:03:44Z</time>
      </trkpt>
      <trkpt lat="46.15991" lon="-1.15158">
        <ele>3.98</ele>
        <time>2019-04-18T09:03:58Z</time>
      </trkpt>
      <trkpt lat="46.1599" lon="-1.15161">
        <ele>3.5</ele>
        <time>2019-04-18T09:04:13Z</time>
      </trkpt>
      <trkpt lat="46.15986" lon="-1.15164">
        <ele>3.98</ele>
        <time>2019-04-18T09:04:26Z</time>
      </trkpt>
      <trkpt lat="46.15985" lon="-1.15164">
        <ele>3.98</ele>
        <time>2019-04-18T09:04:43Z</time>
      </trkpt>
      <trkpt lat="46.15985" lon="-1.15164">
        <ele>3.98</ele>
        <time>2019-04-18T09:05:03Z</time>
      </trkpt>
      <trkpt lat="46.15985" lon="-1.15166">
        <ele>3.98</ele>
        <time>2019-04-18T09:05:20Z</time>
      </trkpt>
      <trkpt lat="46.15985" lon="-1.15166">
        <ele>4.46</ele>
        <time>2019-04-18T09:05:43Z</time>
      </trkpt>
      <trkpt lat="46.15979" lon="-1.1518">
        <ele>3.5</ele>
        <time>2019-04-18T09:06:05Z</time>
      </trkpt>
      <trkpt lat="46.15972" lon="-1.15183">
        <ele>4.94</ele>
        <time>2019-04-18T09:06:22Z</time>
      </trkpt>
      <trkpt lat="46.15972" lon="-1.15183">
        <ele>4.94</ele>
        <time>2019-04-18T09:07:09Z</time>
      </trkpt>
      <trkpt lat="46.15973" lon="-1.15185">
        <ele>4.94</ele>
        <time>2019-04-18T09:08:35Z</time>
      </trkpt>
      <trkpt lat="46.15975" lon="-1.15187">
        <ele>6.39</ele>
        <time>2019-04-18T09:11:23Z</time>
      </trkpt>
      <trkpt lat="46.15977" lon="-1.15187">
        <ele>5.91</ele>
        <time>2019-04-18T09:11:38Z</time>
      </trkpt>
      <trkpt lat="46.15978" lon="-1.15187">
        <ele>5.91</ele>
        <time>2019-04-18T09:11:49Z</time>
      </trkpt>
      <trkpt lat="46.15984" lon="-1.15183">
        <ele>6.39</ele>
        <time>2019-04-18T09:12:02Z</time>
      </trkpt>
      <trkpt lat="46.15988" lon="-1.15191">
        <ele>6.39</ele>
        <time>2019-04-18T09:12:13Z</time>
      </trkpt>
      <trkpt lat="46.15997" lon="-1.15203">
        <ele>6.39</ele>
        <time>2019-04-18T09:12:28Z</time>
      </trkpt>
      <trkpt lat="46.16013" lon="-1.15216">
        <ele>6.39</ele>
        <time>2019-04-18T09:12:41Z</time>
      </trkpt>
      <trkpt lat="46.16013" lon="-1.15221">
        <ele>5.91</ele>
        <time>2019-04-18T09:12:45Z</time>
      </trkpt>
      <trkpt lat="46.16017" lon="-1.15236">
        <ele>6.39</ele>
        <time>2019-04-18T09:12:59Z</time>
      </trkpt>
      <trkpt lat="46.16014" lon="-1.15245">
        <ele>6.39</ele>
        <time>2019-04-18T09:13:14Z</time>
      </trkpt>
      <trkpt lat="46.16013" lon="-1.15261">
        <ele>6.87</ele>
        <time>2019-04-18T09:13:34Z</time>
      </trkpt>
      <trkpt lat="46.16023" lon="-1.15285">
        <ele>6.87</ele>
        <time>2019-04-18T09:13:54Z</time>
      </trkpt>
      <trkpt lat="46.16032" lon="-1.15328">
        <ele>6.87</ele>
        <time>2019-04-18T09:14:08Z</time>
      </trkpt>
      <trkpt lat="46.1603" lon="-1.15342">
        <ele>6.87</ele>
        <time>2019-04-18T09:14:22Z</time>
      </trkpt>
      <trkpt lat="46.16028" lon="-1.15343">
        <ele>6.87</ele>
        <time>2019-04-18T09:14:30Z</time>
      </trkpt>
      <trkpt lat="46.16022" lon="-1.15345">
        <ele>6.87</ele>
        <time>2019-04-18T09:14:38Z</time>
      </trkpt>
      <trkpt lat="46.16014" lon="-1.15353">
        <ele>6.87</ele>
        <time>2019-04-18T09:14:56Z</time>
      </trkpt>
      <trkpt lat="46.15989" lon="-1.15368">
        <ele>6.39</ele>
        <time>2019-04-18T09:15:12Z</time>
      </trkpt>
      <trkpt lat="46.1598" lon="-1.15372">
        <ele>6.39</ele>
        <time>2019-04-18T09:15:28Z</time>
      </trkpt>
      <trkpt lat="46.15966" lon="-1.15371">
        <ele>6.39</ele>
        <time>2019-04-18T09:15:46Z</time>
      </trkpt>
      <trkpt lat="46.15957" lon="-1.15367">
        <ele>5.91</ele>
        <time>2019-04-18T09:16:05Z</time>
      </trkpt>
      <trkpt lat="46.15954" lon="-1.15365">
        <ele>6.39</ele>
        <time>2019-04-18T09:16:24Z</time>
      </trkpt>
      <trkpt lat="46.15943" lon="-1.15366">
        <ele>5.91</ele>
        <time>2019-04-18T09:16:42Z</time>
      </trkpt>
      <trkpt lat="46.15937" lon="-1.15373">
        <ele>5.91</ele>
        <time>2019-04-18T09:17:03Z</time>
      </trkpt>
      <trkpt lat="46.15933" lon="-1.15391">
        <ele>5.91</ele>
        <time>2019-04-18T09:17:19Z</time>
      </trkpt>
      <trkpt lat="46.15936" lon="-1.15391">
        <ele>6.39</ele>
        <time>2019-04-18T09:17:33Z</time>
      </trkpt>
      <trkpt lat="46.15936" lon="-1.1539">
        <ele>5.91</ele>
        <time>2019-04-18T09:18:26Z</time>
      </trkpt>
      <trkpt lat="46.15934" lon="-1.1539">
        <ele>5.91</ele>
        <time>2019-04-18T09:18:45Z</time>
      </trkpt>
      <trkpt lat="46.15938" lon="-1.15385">
        <ele>5.42</ele>
        <time>2019-04-18T09:19:05Z</time>
      </trkpt>
      <trkpt lat="46.15938" lon="-1.15387">
        <ele>5.42</ele>
        <time>2019-04-18T09:19:29Z</time>
      </trkpt>
      <trkpt lat="46.1594" lon="-1.15388">
        <ele>5.91</ele>
        <time>2019-04-18T09:19:52Z</time>
      </trkpt>
      <trkpt lat="46.1594" lon="-1.15389">
        <ele>5.42</ele>
        <time>2019-04-18T09:21:44Z</time>
      </trkpt>
      <trkpt lat="46.15939" lon="-1.15391">
        <ele>4.94</ele>
        <time>2019-04-18T09:23:41Z</time>
      </trkpt>
      <trkpt lat="46.15936" lon="-1.15408">
        <ele>4.94</ele>
        <time>2019-04-18T09:24:14Z</time>
      </trkpt>
      <trkpt lat="46.15936" lon="-1.15413">
        <ele>4.94</ele>
        <time>2019-04-18T09:24:27Z</time>
      </trkpt>
      <trkpt lat="46.15933" lon="-1.15423">
        <ele>5.42</ele>
        <time>2019-04-18T09:24:41Z</time>
      </trkpt>
      <trkpt lat="46.15932" lon="-1.15432">
        <ele>4.94</ele>
        <time>2019-04-18T09:24:52Z</time>
      </trkpt>
      <trkpt lat="46.15932" lon="-1.15443">
        <ele>4.94</ele>
        <time>2019-04-18T09:25:06Z</time>
      </trkpt>
      <trkpt lat="46.15935" lon="-1.15455">
        <ele>4.94</ele>
        <time>2019-04-18T09:25:15Z</time>
      </trkpt>
      <trkpt lat="46.15936" lon="-1.15462">
        <ele>4.94</ele>
        <time>2019-04-18T09:25:19Z</time>
      </trkpt>
      <trkpt lat="46.15938" lon="-1.15476">
        <ele>5.42</ele>
        <time>2019-04-18T09:25:28Z</time>
      </trkpt>
      <trkpt lat="46.1594" lon="-1.15492">
        <ele>4.94</ele>
        <time>2019-04-18T09:25:40Z</time>
      </trkpt>
      <trkpt lat="46.1594" lon="-1.155">
        <ele>4.46</ele>
        <time>2019-04-18T09:25:52Z</time>
      </trkpt>
      <trkpt lat="46.1594" lon="-1.15501">
        <ele>4.94</ele>
        <time>2019-04-18T09:26:21Z</time>
      </trkpt>
      <trkpt lat="46.15941" lon="-1.15502">
        <ele>4.46</ele>
        <time>2019-04-18T09:27:03Z</time>
      </trkpt>
      <trkpt lat="46.15942" lon="-1.15504">
        <ele>3.98</ele>
        <time>2019-04-18T09:27:17Z</time>
      </trkpt>
      <trkpt lat="46.15942" lon="-1.15503">
        <ele>4.46</ele>
        <time>2019-04-18T09:27:47Z</time>
      </trkpt>
      <trkpt lat="46.15939" lon="-1.15507">
        <ele>4.46</ele>
        <time>2019-04-18T09:28:07Z</time>
      </trkpt>
      <trkpt lat="46.15939" lon="-1.15509">
        <ele>4.94</ele>
        <time>2019-04-18T09:28:26Z</time>
      </trkpt>
      <trkpt lat="46.15939" lon="-1.15509">
        <ele>4.46</ele>
        <time>2019-04-18T09:28:56Z</time>
      </trkpt>
      <trkpt lat="46.15939" lon="-1.15507">
        <ele>4.46</ele>
        <time>2019-04-18T09:29:35Z</time>
      </trkpt>
      <trkpt lat="46.15939" lon="-1.15508">
        <ele>4.94</ele>
        <time>2019-04-18T09:30:02Z</time>
      </trkpt>
      <trkpt lat="46.15934" lon="-1.15508">
        <ele>4.46</ele>
        <time>2019-04-18T09:30:36Z</time>
      </trkpt>
      <trkpt lat="46.15926" lon="-1.15507">
        <ele>4.46</ele>
        <time>2019-04-18T09:30:47Z</time>
      </trkpt>
      <trkpt lat="46.15916" lon="-1.15514">
        <ele>4.46</ele>
        <time>2019-04-18T09:30:59Z</time>
      </trkpt>
      <trkpt lat="46.15914" lon="-1.15515">
        <ele>4.46</ele>
        <time>2019-04-18T09:31:02Z</time>
      </trkpt>
      <trkpt lat="46.15914" lon="-1.15516">
        <ele>4.94</ele>
        <time>2019-04-18T09:31:15Z</time>
      </trkpt>
      <trkpt lat="46.15911" lon="-1.15517">
        <ele>3.98</ele>
        <time>2019-04-18T09:31:40Z</time>
      </trkpt>
      <trkpt lat="46.15903" lon="-1.15517">
        <ele>3.98</ele>
        <time>2019-04-18T09:31:54Z</time>
      </trkpt>
      <trkpt lat="46.15895" lon="-1.15521">
        <ele>4.94</ele>
        <time>2019-04-18T09:32:05Z</time>
      </trkpt>
      <trkpt lat="46.15894" lon="-1.1552">
        <ele>4.94</ele>
        <time>2019-04-18T09:32:08Z</time>
      </trkpt>
      <trkpt lat="46.15882" lon="-1.15524">
        <ele>3.98</ele>
        <time>2019-04-18T09:32:21Z</time>
      </trkpt>
      <trkpt lat="46.15875" lon="-1.15524">
        <ele>3.98</ele>
        <time>2019-04-18T09:32:33Z</time>
      </trkpt>
      <trkpt lat="46.15867" lon="-1.15527">
        <ele>4.46</ele>
        <time>2019-04-18T09:32:44Z</time>
      </trkpt>
      <trkpt lat="46.15859" lon="-1.15532">
        <ele>4.94</ele>
        <time>2019-04-18T09:32:57Z</time>
      </trkpt>
      <trkpt lat="46.15849" lon="-1.15533">
        <ele>4.46</ele>
        <time>2019-04-18T09:33:11Z</time>
      </trkpt>
      <trkpt lat="46.1584" lon="-1.15533">
        <ele>4.94</ele>
        <time>2019-04-18T09:33:23Z</time>
      </trkpt>
      <trkpt lat="46.15839" lon="-1.15534">
        <ele>4.94</ele>
        <time>2019-04-18T09:33:37Z</time>
      </trkpt>
      <trkpt lat="46.15837" lon="-1.15529">
        <ele>4.46</ele>
        <time>2019-04-18T09:33:55Z</time>
      </trkpt>
      <trkpt lat="46.15843" lon="-1.15512">
        <ele>4.46</ele>
        <time>2019-04-18T09:34:28Z</time>
      </trkpt>
      <trkpt lat="46.15843" lon="-1.15503">
        <ele>4.94</ele>
        <time>2019-04-18T09:34:58Z</time>
      </trkpt>
      <trkpt lat="46.15843" lon="-1.155">
        <ele>4.94</ele>
        <time>2019-04-18T09:35:24Z</time>
      </trkpt>
      <trkpt lat="46.15837" lon="-1.15482">
        <ele>4.94</ele>
        <time>2019-04-18T09:35:41Z</time>
      </trkpt>
      <trkpt lat="46.15837" lon="-1.15472">
        <ele>4.46</ele>
        <time>2019-04-18T09:35:53Z</time>
      </trkpt>
      <trkpt lat="46.15838" lon="-1.15472">
        <ele>5.42</ele>
        <time>2019-04-18T09:36:03Z</time>
      </trkpt>
      <trkpt lat="46.15839" lon="-1.15446">
        <ele>5.42</ele>
        <time>2019-04-18T09:36:19Z</time>
      </trkpt>
      <trkpt lat="46.15844" lon="-1.15428">
        <ele>5.42</ele>
        <time>2019-04-18T09:36:33Z</time>
      </trkpt>
      <trkpt lat="46.1585" lon="-1.15417">
        <ele>4.94</ele>
        <time>2019-04-18T09:36:53Z</time>
      </trkpt>
      <trkpt lat="46.15852" lon="-1.15402">
        <ele>5.42</ele>
        <time>2019-04-18T09:37:13Z</time>
      </trkpt>
      <trkpt lat="46.15847" lon="-1.15391">
        <ele>4.94</ele>
        <time>2019-04-18T09:37:26Z</time>
      </trkpt>
      <trkpt lat="46.1585" lon="-1.15385">
        <ele>4.94</ele>
        <time>2019-04-18T09:37:42Z</time>
      </trkpt>
      <trkpt lat="46.1585" lon="-1.15381">
        <ele>4.94</ele>
        <time>2019-04-18T09:37:53Z</time>
      </trkpt>
      <trkpt lat="46.1585" lon="-1.15381">
        <ele>5.42</ele>
        <time>2019-04-18T09:38:20Z</time>
      </trkpt>
      <trkpt lat="46.1585" lon="-1.15381">
        <ele>5.91</ele>
        <time>2019-04-18T09:38:41Z</time>
      </trkpt>
      <trkpt lat="46.15849" lon="-1.1538">
        <ele>5.42</ele>
        <time>2019-04-18T09:39:12Z</time>
      </trkpt>
      <trkpt lat="46.15849" lon="-1.1538">
        <ele>5.42</ele>
        <time>2019-04-18T09:39:43Z</time>
      </trkpt>
      <trkpt lat="46.15849" lon="-1.1538">
        <ele>5.42</ele>
        <time>2019-04-18T09:40:20Z</time>
      </trkpt>
      <trkpt lat="46.15849" lon="-1.1538">
        <ele>5.42</ele>
        <time>2019-04-18T09:41:24Z</time>
      </trkpt>
      <trkpt lat="46.15849" lon="-1.15378">
        <ele>5.42</ele>
        <time>2019-04-18T09:41:56Z</time>
      </trkpt>
      <trkpt lat="46.15849" lon="-1.15378">
        <ele>4.94</ele>
        <time>2019-04-18T09:42:35Z</time>
      </trkpt>
      <trkpt lat="46.15849" lon="-1.15377">
        <ele>4.94</ele>
        <time>2019-04-18T09:42:48Z</time>
      </trkpt>
      <trkpt lat="46.15847" lon="-1.15378">
        <ele>4.94</ele>
        <time>2019-04-18T09:42:56Z</time>
      </trkpt>
      <trkpt lat="46.15834" lon="-1.15376">
        <ele>4.94</ele>
        <time>2019-04-18T09:43:10Z</time>
      </trkpt>
      <trkpt lat="46.15824" lon="-1.15377">
        <ele>4.46</ele>
        <time>2019-04-18T09:43:23Z</time>
      </trkpt>
      <trkpt lat="46.15818" lon="-1.15373">
        <ele>4.46</ele>
        <time>2019-04-18T09:43:29Z</time>
      </trkpt>
      <trkpt lat="46.15808" lon="-1.15365">
        <ele>3.98</ele>
        <time>2019-04-18T09:43:38Z</time>
      </trkpt>
      <trkpt lat="46.15801" lon="-1.15349">
        <ele>3.98</ele>
        <time>2019-04-18T09:43:53Z</time>
      </trkpt>
      <trkpt lat="46.15799" lon="-1.15345">
        <ele>4.46</ele>
        <time>2019-04-18T09:44:04Z</time>
      </trkpt>
      <trkpt lat="46.15799" lon="-1.15345">
        <ele>4.46</ele>
        <time>2019-04-18T09:44:17Z</time>
      </trkpt>
      <trkpt lat="46.15799" lon="-1.15344">
        <ele>4.46</ele>
        <time>2019-04-18T09:44:46Z</time>
      </trkpt>
      <trkpt lat="46.15799" lon="-1.15343">
        <ele>3.5</ele>
        <time>2019-04-18T09:44:54Z</time>
      </trkpt>
      <trkpt lat="46.15796" lon="-1.15341">
        <ele>3.02</ele>
        <time>2019-04-18T09:44:56Z</time>
      </trkpt>
      <trkpt lat="46.1579" lon="-1.15335">
        <ele>4.94</ele>
        <time>2019-04-18T09:45:09Z</time>
      </trkpt>
      <trkpt lat="46.15795" lon="-1.15336">
        <ele>3.98</ele>
        <time>2019-04-18T09:45:24Z</time>
      </trkpt>
      <trkpt lat="46.15796" lon="-1.15336">
        <ele>3.98</ele>
        <time>2019-04-18T09:45:41Z</time>
      </trkpt>
      <trkpt lat="46.15796" lon="-1.15336">
        <ele>4.46</ele>
        <time>2019-04-18T09:46:26Z</time>
      </trkpt>
      <trkpt lat="46.15796" lon="-1.15336">
        <ele>3.02</ele>
        <time>2019-04-18T09:46:40Z</time>
      </trkpt>
      <trkpt lat="46.15797" lon="-1.15335">
        <ele>3.5</ele>
        <time>2019-04-18T09:47:39Z</time>
      </trkpt>
      <trkpt lat="46.15795" lon="-1.15334">
        <ele>3.02</ele>
        <time>2019-04-18T09:49:05Z</time>
      </trkpt>
      <trkpt lat="46.15795" lon="-1.15334">
        <ele>3.02</ele>
        <time>2019-04-18T09:49:40Z</time>
      </trkpt>
      <trkpt lat="46.15795" lon="-1.15334">
        <ele>3.5</ele>
        <time>2019-04-18T09:49:55Z</time>
      </trkpt>
      <trkpt lat="46.15794" lon="-1.15334">
        <ele>3.5</ele>
        <time>2019-04-18T09:50:17Z</time>
      </trkpt>
      <trkpt lat="46.1579" lon="-1.15331">
        <ele>3.5</ele>
        <time>2019-04-18T09:50:33Z</time>
      </trkpt>
      <trkpt lat="46.15788" lon="-1.15332">
        <ele>2.54</ele>
        <time>2019-04-18T09:50:37Z</time>
      </trkpt>
      <trkpt lat="46.15779" lon="-1.15343">
        <ele>3.02</ele>
        <time>2019-04-18T09:50:50Z</time>
      </trkpt>
      <trkpt lat="46.15779" lon="-1.15343">
        <ele>3.02</ele>
        <time>2019-04-18T09:51:07Z</time>
      </trkpt>
      <trkpt lat="46.15778" lon="-1.15343">
        <ele>2.06</ele>
        <time>2019-04-18T09:51:36Z</time>
      </trkpt>
      <trkpt lat="46.15778" lon="-1.15342">
        <ele>2.06</ele>
        <time>2019-04-18T09:52:11Z</time>
      </trkpt>
      <trkpt lat="46.15778" lon="-1.15343">
        <ele>3.02</ele>
        <time>2019-04-18T09:52:24Z</time>
      </trkpt>
      <trkpt lat="46.15778" lon="-1.15344">
        <ele>3.02</ele>
        <time>2019-04-18T09:52:41Z</time>
      </trkpt>
      <trkpt lat="46.15775" lon="-1.15345">
        <ele>1.58</ele>
        <time>2019-04-18T09:52:58Z</time>
      </trkpt>
      <trkpt lat="46.15779" lon="-1.15345">
        <ele>0.62</ele>
        <time>2019-04-18T09:53:22Z</time>
      </trkpt>
      <trkpt lat="46.15786" lon="-1.15365">
        <ele>0.14</ele>
        <time>2019-04-18T09:53:52Z</time>
      </trkpt>
      <trkpt lat="46.15783" lon="-1.15344">
        <ele>2.06</ele>
        <time>2019-04-18T09:55:36Z</time>
      </trkpt>
      <trkpt lat="46.15774" lon="-1.15338">
        <ele>3.5</ele>
        <time>2019-04-18T09:56:05Z</time>
      </trkpt>
      <trkpt lat="46.15767" lon="-1.1534">
        <ele>2.54</ele>
        <time>2019-04-18T09:56:26Z</time>
      </trkpt>
      <trkpt lat="46.15758" lon="-1.15345">
        <ele>3.02</ele>
        <time>2019-04-18T09:56:37Z</time>
      </trkpt>
      <trkpt lat="46.15746" lon="-1.15354">
        <ele>3.02</ele>
        <time>2019-04-18T09:56:50Z</time>
      </trkpt>
      <trkpt lat="46.15742" lon="-1.15356">
        <ele>3.02</ele>
        <time>2019-04-18T09:56:54Z</time>
      </trkpt>
      <trkpt lat="46.15732" lon="-1.15364">
        <ele>3.02</ele>
        <time>2019-04-18T09:57:07Z</time>
      </trkpt>
      <trkpt lat="46.15723" lon="-1.15369">
        <ele>2.54</ele>
        <time>2019-04-18T09:57:17Z</time>
      </trkpt>
      <trkpt lat="46.15718" lon="-1.1537">
        <ele>3.5</ele>
        <time>2019-04-18T09:57:21Z</time>
      </trkpt>
      <trkpt lat="46.15707" lon="-1.15381">
        <ele>3.02</ele>
        <time>2019-04-18T09:57:34Z</time>
      </trkpt>
      <trkpt lat="46.157" lon="-1.1539">
        <ele>3.5</ele>
        <time>2019-04-18T09:57:44Z</time>
      </trkpt>
      <trkpt lat="46.15695" lon="-1.15392">
        <ele>3.5</ele>
        <time>2019-04-18T09:57:56Z</time>
      </trkpt>
      <trkpt lat="46.15694" lon="-1.15393">
        <ele>3.02</ele>
        <time>2019-04-18T09:58:13Z</time>
      </trkpt>
    </trkseg>
  </trk>
</gpx>